createdAt,value
2023-03-23T00:01:00.156Z,21.78
2023-03-23T00:02:05.776Z,21.78
2023-03-23T00:03:11.479Z,21.76
2023-03-23T00:04:16.956Z,21.73
2023-03-23T00:05:26.732Z,21.75
2023-03-23T00:06:32.162Z,21.76
2023-03-23T00:07:39.967Z,21.71
2023-03-23T00:08:45.580Z,21.71
2023-03-23T00:10:01.029Z,21.7
2023-03-23T00:11:06.410Z,21.72
2023-03-23T00:12:11.913Z,21.71
2023-03-23T00:13:17.531Z,21.71
2023-03-23T00:14:23.392Z,21.72
2023-03-23T00:15:28.838Z,21.7
2023-03-23T00:16:34.287Z,21.71
2023-03-23T00:17:40.182Z,21.7
2023-03-23T00:18:46.221Z,21.65
2023-03-23T00:19:51.760Z,21.69
2023-03-23T00:20:57.353Z,21.71
2023-03-23T00:22:02.794Z,21.67
2023-03-23T00:23:08.694Z,21.69
2023-03-23T00:24:14.129Z,21.71
2023-03-23T00:25:19.896Z,21.72
2023-03-23T00:26:25.591Z,21.73
2023-03-23T00:27:31.179Z,21.72
2023-03-23T00:28:36.828Z,21.71
2023-03-23T00:29:42.197Z,21.73
2023-03-23T00:30:47.567Z,21.72
2023-03-23T00:31:53.116Z,21.71
2023-03-23T00:32:58.578Z,21.73
2023-03-23T00:34:04.193Z,21.74
2023-03-23T00:35:09.588Z,21.74
2023-03-23T00:36:15.924Z,21.7
2023-03-23T00:37:22.331Z,21.7
2023-03-23T00:38:28.580Z,21.72
2023-03-23T00:39:34.572Z,21.72
2023-03-23T00:40:40.434Z,21.7
2023-03-23T00:41:45.865Z,21.69
2023-03-23T00:42:51.534Z,21.73
2023-03-23T00:43:56.883Z,21.73
2023-03-23T00:45:02.573Z,21.73
2023-03-23T00:46:08.041Z,21.73
2023-03-23T00:47:13.412Z,21.74
2023-03-23T00:48:19.084Z,21.72
2023-03-23T00:49:24.955Z,21.71
2023-03-23T00:50:37.149Z,21.73
2023-03-23T00:51:44.005Z,21.73
2023-03-23T00:52:49.802Z,21.75
2023-03-23T00:53:55.175Z,21.74
2023-03-23T00:55:00.567Z,21.75
2023-03-23T00:56:05.963Z,21.76
2023-03-23T00:57:11.399Z,21.73
2023-03-23T00:58:17.030Z,21.72
2023-03-23T00:59:22.455Z,21.73
2023-03-23T01:00:27.828Z,21.73
2023-03-23T01:01:33.476Z,21.73
2023-03-23T01:02:38.848Z,21.72
2023-03-23T01:03:44.418Z,21.71
2023-03-23T01:04:49.952Z,21.72
2023-03-23T01:05:55.457Z,21.7
2023-03-23T01:07:00.863Z,21.68
2023-03-23T01:08:06.246Z,21.67
2023-03-23T01:09:11.660Z,21.68
2023-03-23T01:10:17.425Z,21.69
2023-03-23T01:11:26.243Z,21.67
2023-03-23T01:12:31.927Z,21.68
2023-03-23T01:13:37.385Z,21.64
2023-03-23T01:14:43.560Z,21.6
2023-03-23T01:15:49.029Z,21.58
2023-03-23T01:16:55.129Z,21.61
2023-03-23T01:18:00.512Z,21.63
2023-03-23T01:19:06.133Z,21.64
2023-03-23T01:20:11.506Z,21.65
2023-03-23T01:21:17.129Z,21.66
2023-03-23T01:22:22.546Z,21.65
2023-03-23T01:23:27.925Z,21.67
2023-03-23T01:24:33.294Z,21.66
2023-03-23T01:25:39.153Z,21.65
2023-03-23T01:26:45.328Z,21.67
2023-03-23T01:27:50.699Z,21.67
2023-03-23T01:28:56.088Z,21.66
2023-03-23T01:30:01.947Z,21.64
2023-03-23T01:31:14.266Z,21.64
2023-03-23T01:32:20.079Z,21.63
2023-03-23T01:33:27.159Z,21.63
2023-03-23T01:34:32.574Z,21.59
2023-03-23T01:35:38.013Z,21.59
2023-03-23T01:36:43.889Z,21.63
2023-03-23T01:37:49.446Z,21.62
2023-03-23T01:38:54.817Z,21.62
2023-03-23T01:40:00.240Z,21.59
2023-03-23T01:41:05.675Z,21.6
2023-03-23T01:42:11.314Z,21.61
2023-03-23T01:43:17.092Z,21.61
2023-03-23T01:44:23.007Z,21.6
2023-03-23T01:45:28.354Z,21.62
2023-03-23T01:46:33.744Z,21.61
2023-03-23T01:47:39.096Z,21.63
2023-03-23T01:48:46.873Z,21.64
2023-03-23T01:49:52.545Z,21.63
2023-03-23T01:50:57.971Z,21.64
2023-03-23T01:52:03.493Z,21.65
2023-03-23T01:53:08.900Z,21.65
2023-03-23T01:54:14.792Z,21.64
2023-03-23T01:55:20.137Z,21.63
2023-03-23T01:56:25.646Z,21.64
2023-03-23T01:57:31.622Z,21.62
2023-03-23T01:58:37.076Z,21.62
2023-03-23T01:59:42.676Z,21.63
2023-03-23T02:00:49.440Z,21.61
2023-03-23T02:01:55.384Z,21.6
2023-03-23T02:03:02.028Z,21.62
2023-03-23T02:04:07.401Z,21.63
2023-03-23T02:05:12.772Z,21.6
2023-03-23T02:06:18.482Z,21.58
2023-03-23T02:07:24.127Z,21.57
2023-03-23T02:08:29.816Z,21.57
2023-03-23T02:09:35.329Z,21.56
2023-03-23T02:10:40.789Z,21.58
2023-03-23T02:11:55.503Z,21.59
2023-03-23T02:13:00.899Z,21.61
2023-03-23T02:14:06.270Z,21.64
2023-03-23T02:15:11.693Z,21.64
2023-03-23T02:16:17.401Z,21.64
2023-03-23T02:17:23.034Z,21.63
2023-03-23T02:18:28.736Z,21.64
2023-03-23T02:19:34.108Z,21.62
2023-03-23T02:20:39.628Z,21.59
2023-03-23T02:21:44.977Z,21.56
2023-03-23T02:22:50.541Z,21.55
2023-03-23T02:23:56.019Z,21.59
2023-03-23T02:25:01.522Z,21.58
2023-03-23T02:26:07.170Z,21.57
2023-03-23T02:27:12.744Z,21.55
2023-03-23T02:28:18.371Z,21.56
2023-03-23T02:29:25.357Z,21.55
2023-03-23T02:30:37.410Z,21.56
2023-03-23T02:31:43.462Z,21.58
2023-03-23T02:32:48.848Z,21.59
2023-03-23T02:33:54.245Z,21.56
2023-03-23T02:34:59.886Z,21.54
2023-03-23T02:36:05.449Z,21.55
2023-03-23T02:37:11.490Z,21.56
2023-03-23T02:38:16.828Z,21.56
2023-03-23T02:39:22.574Z,21.56
2023-03-23T02:40:28.669Z,21.56
2023-03-23T02:41:34.459Z,21.55
2023-03-23T02:42:40.413Z,21.5
2023-03-23T02:43:46.439Z,21.52
2023-03-23T02:44:51.933Z,21.52
2023-03-23T02:45:57.351Z,21.51
2023-03-23T02:47:02.970Z,21.52
2023-03-23T02:48:08.500Z,21.53
2023-03-23T02:49:14.713Z,21.52
2023-03-23T02:50:20.790Z,21.5
2023-03-23T02:51:26.660Z,21.51
2023-03-23T02:52:46.111Z,21.51
2023-03-23T02:53:51.704Z,21.52
2023-03-23T02:54:57.092Z,21.49
2023-03-23T02:56:02.492Z,21.53
2023-03-23T02:57:08.380Z,21.57
2023-03-23T02:58:14.120Z,21.59
2023-03-23T02:59:19.533Z,21.58
2023-03-23T03:00:25.414Z,21.57
2023-03-23T03:01:31.319Z,21.57
2023-03-23T03:02:38.658Z,21.6
2023-03-23T03:03:45.709Z,21.59
2023-03-23T03:04:51.819Z,21.59
2023-03-23T03:05:57.488Z,21.57
2023-03-23T03:07:04.428Z,21.58
2023-03-23T03:08:10.231Z,21.55
2023-03-23T03:09:15.906Z,21.54
2023-03-23T03:10:21.348Z,21.56
2023-03-23T03:11:26.688Z,21.55
2023-03-23T03:12:32.880Z,21.55
2023-03-23T03:13:39.441Z,21.55
2023-03-23T03:14:45.685Z,21.55
2023-03-23T03:15:51.950Z,21.56
2023-03-23T03:16:58.005Z,21.57
2023-03-23T03:18:03.627Z,21.54
2023-03-23T03:19:09.480Z,21.55
2023-03-23T03:20:15.480Z,21.56
2023-03-23T03:21:21.590Z,21.57
2023-03-23T03:22:27.842Z,21.57
2023-03-23T03:23:33.213Z,21.57
2023-03-23T03:24:39.100Z,21.6
2023-03-23T03:25:44.471Z,21.58
2023-03-23T03:26:49.997Z,21.58
2023-03-23T03:27:55.902Z,21.57
2023-03-23T03:29:01.749Z,21.57
2023-03-23T03:30:07.130Z,21.57
2023-03-23T03:31:12.779Z,21.53
2023-03-23T03:32:18.833Z,21.52
2023-03-23T03:33:24.645Z,21.56
2023-03-23T03:34:30.091Z,21.55
2023-03-23T03:35:35.459Z,21.57
2023-03-23T03:36:41.101Z,21.56
2023-03-23T03:37:47.331Z,21.58
2023-03-23T03:38:52.960Z,21.56
2023-03-23T03:39:58.950Z,21.57
2023-03-23T03:41:05.030Z,21.56
2023-03-23T03:42:11.416Z,21.57
2023-03-23T03:43:17.593Z,21.53
2023-03-23T03:44:23.241Z,21.53
2023-03-23T03:45:28.629Z,21.55
2023-03-23T03:46:34.603Z,21.56
2023-03-23T03:47:40.216Z,21.54
2023-03-23T03:48:45.784Z,21.55
2023-03-23T03:49:51.772Z,21.54
2023-03-23T03:50:57.082Z,21.54
2023-03-23T03:52:02.571Z,21.55
2023-03-23T03:53:08.398Z,21.54
2023-03-23T03:54:14.190Z,21.52
2023-03-23T03:55:21.563Z,21.54
2023-03-23T03:56:27.742Z,21.53
2023-03-23T03:57:34.217Z,21.52
2023-03-23T03:58:39.573Z,21.52
2023-03-23T03:59:45.499Z,21.53
2023-03-23T04:00:52.428Z,21.51
2023-03-23T04:01:58.625Z,21.53
2023-03-23T04:03:04.778Z,21.51
2023-03-23T04:04:10.238Z,21.49
2023-03-23T04:05:15.640Z,21.45
2023-03-23T04:06:21.381Z,21.47
2023-03-23T04:07:27.502Z,21.49
2023-03-23T04:08:34.459Z,21.44
2023-03-23T04:09:40.057Z,21.45
2023-03-23T04:10:45.559Z,21.48
2023-03-23T04:11:51.566Z,21.45
2023-03-23T04:12:57.363Z,21.46
2023-03-23T04:14:02.968Z,21.48
2023-03-23T04:15:09.351Z,21.45
2023-03-23T04:16:15.507Z,21.46
2023-03-23T04:17:22.795Z,21.47
2023-03-23T04:18:28.356Z,21.47
2023-03-23T04:19:34.320Z,21.49
2023-03-23T04:20:40.213Z,21.5
2023-03-23T04:21:45.686Z,21.48
2023-03-23T04:22:51.180Z,21.51
2023-03-23T04:23:57.525Z,21.51
2023-03-23T04:25:04.309Z,21.47
2023-03-23T04:26:10.788Z,21.45
2023-03-23T04:27:17.146Z,21.49
2023-03-23T04:28:22.862Z,21.47
2023-03-23T04:29:28.564Z,21.52
2023-03-23T04:30:36.326Z,21.53
2023-03-23T04:31:42.163Z,21.55
2023-03-23T04:32:48.577Z,21.56
2023-03-23T04:33:55.726Z,21.54
2023-03-23T04:35:12.666Z,21.49
2023-03-23T04:36:19.966Z,21.46
2023-03-23T04:37:58.672Z,21.46
2023-03-23T04:39:04.000Z,21.45
2023-03-23T04:40:12.423Z,21.45
2023-03-23T04:41:18.279Z,21.45
2023-03-23T04:42:23.671Z,21.48
2023-03-23T04:43:29.209Z,21.47
2023-03-23T04:44:34.561Z,21.46
2023-03-23T04:45:40.097Z,21.45
2023-03-23T04:46:46.130Z,21.46
2023-03-23T04:47:51.478Z,21.46
2023-03-23T04:48:57.331Z,21.46
2023-03-23T04:50:02.868Z,21.46
2023-03-23T04:51:08.808Z,21.47
2023-03-23T04:52:14.536Z,21.48
2023-03-23T04:53:19.974Z,21.47
2023-03-23T04:54:25.484Z,21.49
2023-03-23T04:55:30.841Z,21.5
2023-03-23T04:56:36.196Z,21.48
2023-03-23T04:57:41.608Z,21.47
2023-03-23T04:58:46.955Z,21.51
2023-03-23T04:59:52.365Z,21.52
2023-03-23T05:00:57.909Z,21.48
2023-03-23T05:02:13.740Z,21.47
2023-03-23T05:03:31.977Z,21.52
2023-03-23T05:04:37.405Z,21.59
2023-03-23T05:05:43.191Z,21.66
2023-03-23T05:06:48.729Z,21.66
2023-03-23T05:07:57.713Z,21.67
2023-03-23T05:09:03.579Z,21.69
2023-03-23T05:10:08.925Z,21.71
2023-03-23T05:11:14.248Z,21.73
2023-03-23T05:12:19.594Z,21.73
2023-03-23T05:13:24.969Z,21.75
2023-03-23T05:14:30.443Z,21.78
2023-03-23T05:15:44.022Z,21.81
2023-03-23T05:16:51.206Z,21.83
2023-03-23T05:17:56.575Z,21.86
2023-03-23T05:19:01.931Z,21.88
2023-03-23T05:20:07.257Z,21.88
2023-03-23T05:21:12.640Z,21.9
2023-03-23T05:22:18.002Z,21.9
2023-03-23T05:23:23.338Z,21.92
2023-03-23T05:24:28.653Z,21.93
2023-03-23T05:25:34.031Z,21.94
2023-03-23T05:26:39.377Z,21.96
2023-03-23T05:27:44.717Z,21.98
2023-03-23T05:28:50.100Z,21.98
2023-03-23T05:30:04.965Z,21.99
2023-03-23T05:31:10.312Z,22
2023-03-23T05:32:15.721Z,22.02
2023-03-23T05:33:21.058Z,22.02
2023-03-23T05:34:26.384Z,22.02
2023-03-23T05:35:31.738Z,22.02
2023-03-23T05:36:37.186Z,22.02
2023-03-23T05:37:42.565Z,22.03
2023-03-23T05:38:47.905Z,22.03
2023-03-23T05:39:53.218Z,22.03
2023-03-23T05:40:58.579Z,22.02
2023-03-23T05:42:03.990Z,22.01
2023-03-23T05:43:09.355Z,22.02
2023-03-23T05:44:14.670Z,22.02
2023-03-23T05:45:20.030Z,22.03
2023-03-23T05:46:25.378Z,22
2023-03-23T05:47:30.772Z,22
2023-03-23T05:48:36.111Z,21.99
2023-03-23T05:49:41.448Z,21.98
2023-03-23T05:50:46.797Z,21.99
2023-03-23T05:51:52.406Z,21.97
2023-03-23T05:52:57.741Z,21.96
2023-03-23T05:54:03.054Z,21.94
2023-03-23T05:55:08.396Z,21.93
2023-03-23T05:56:13.756Z,21.91
2023-03-23T05:57:19.193Z,21.91
2023-03-23T05:58:25.783Z,21.89
2023-03-23T05:59:32.989Z,21.87
2023-03-23T06:00:47.165Z,21.87
2023-03-23T06:01:52.599Z,21.87
2023-03-23T06:02:58.017Z,21.85
2023-03-23T06:04:03.528Z,21.86
2023-03-23T06:05:09.006Z,21.87
2023-03-23T06:06:14.584Z,21.85
2023-03-23T06:07:19.931Z,21.86
2023-03-23T06:08:25.289Z,21.84
2023-03-23T06:09:30.656Z,21.83
2023-03-23T06:10:36.044Z,21.85
2023-03-23T06:11:41.389Z,21.85
2023-03-23T06:12:46.721Z,21.85
2023-03-23T06:13:52.040Z,21.86
2023-03-23T06:14:57.407Z,21.86
2023-03-23T06:16:02.829Z,21.85
2023-03-23T06:17:08.165Z,21.81
2023-03-23T06:18:13.525Z,21.83
2023-03-23T06:19:18.852Z,21.81
2023-03-23T06:20:24.217Z,21.78
2023-03-23T06:21:29.906Z,21.76
2023-03-23T06:22:35.238Z,21.76
2023-03-23T06:23:40.577Z,21.74
2023-03-23T06:24:45.913Z,21.74
2023-03-23T06:25:51.254Z,21.73
2023-03-23T06:27:09.854Z,21.74
2023-03-23T06:28:19.347Z,21.73
2023-03-23T06:29:24.721Z,21.72
2023-03-23T06:30:30.045Z,21.72
2023-03-23T06:31:35.530Z,21.71
2023-03-23T06:32:47.362Z,21.7
2023-03-23T06:33:52.743Z,21.73
2023-03-23T06:34:58.095Z,21.74
2023-03-23T06:36:03.549Z,21.74
2023-03-23T06:37:09.051Z,21.75
2023-03-23T06:38:14.441Z,21.77
2023-03-23T06:39:19.813Z,21.75
2023-03-23T06:40:25.192Z,21.71
2023-03-23T06:41:30.545Z,21.71
2023-03-23T06:42:36.034Z,21.71
2023-03-23T06:43:41.416Z,21.67
2023-03-23T06:44:46.761Z,21.69
2023-03-23T06:45:52.083Z,21.69
2023-03-23T06:46:57.451Z,21.67
2023-03-23T06:48:02.826Z,21.65
2023-03-23T06:49:08.316Z,21.65
2023-03-23T06:50:13.698Z,21.65
2023-03-23T06:51:19.142Z,21.67
2023-03-23T06:52:24.489Z,21.64
2023-03-23T06:53:29.856Z,21.65
2023-03-23T06:54:35.187Z,21.61
2023-03-23T06:55:42.688Z,21.61
2023-03-23T06:56:48.189Z,21.63
2023-03-23T06:57:53.536Z,21.61
2023-03-23T06:58:58.920Z,21.62
2023-03-23T07:00:04.256Z,21.65
2023-03-23T07:01:12.042Z,21.65
2023-03-23T07:02:17.368Z,21.67
2023-03-23T07:03:22.773Z,21.68
2023-03-23T07:04:28.091Z,21.69
2023-03-23T07:05:33.507Z,21.69
2023-03-23T07:06:38.851Z,21.7
2023-03-23T07:07:44.182Z,21.69
2023-03-23T07:08:49.498Z,21.68
2023-03-23T07:09:54.831Z,21.68
2023-03-23T07:11:00.165Z,21.7
2023-03-23T07:12:05.506Z,21.72
2023-03-23T07:13:10.902Z,21.71
2023-03-23T07:14:16.254Z,21.7
2023-03-23T07:15:21.619Z,21.69
2023-03-23T07:16:29.040Z,21.73
2023-03-23T07:17:34.370Z,21.76
2023-03-23T07:18:39.766Z,21.77
2023-03-23T07:19:45.135Z,21.76
2023-03-23T07:20:50.487Z,21.76
2023-03-23T07:21:55.807Z,21.73
2023-03-23T07:23:01.129Z,21.75
2023-03-23T07:24:06.466Z,21.74
2023-03-23T07:25:11.786Z,21.7
2023-03-23T07:26:17.297Z,21.72
2023-03-23T07:27:22.688Z,21.71
2023-03-23T07:28:28.034Z,21.71
2023-03-23T07:29:33.354Z,21.74
2023-03-23T07:30:38.708Z,21.72
2023-03-23T07:31:44.050Z,21.71
2023-03-23T07:32:49.429Z,21.7
2023-03-23T07:33:54.803Z,21.72
2023-03-23T07:35:00.148Z,21.69
2023-03-23T07:36:12.469Z,21.66
2023-03-23T07:37:18.028Z,21.67
2023-03-23T07:38:23.383Z,21.63
2023-03-23T07:39:28.978Z,21.65
2023-03-23T07:40:34.292Z,21.66
2023-03-23T07:41:39.664Z,21.67
2023-03-23T07:42:45.014Z,21.66
2023-03-23T07:43:50.348Z,21.66
2023-03-23T07:44:55.704Z,21.68
2023-03-23T07:46:01.080Z,21.69
2023-03-23T07:47:06.441Z,21.69
2023-03-23T07:48:19.595Z,21.67
2023-03-23T07:49:26.448Z,21.66
2023-03-23T07:50:38.853Z,21.66
2023-03-23T07:51:44.170Z,21.65
2023-03-23T07:52:49.494Z,21.65
2023-03-23T07:53:54.836Z,21.65
2023-03-23T07:55:00.289Z,21.64
2023-03-23T07:56:05.701Z,21.64
2023-03-23T07:57:11.045Z,21.63
2023-03-23T07:58:16.392Z,21.6
2023-03-23T07:59:21.760Z,21.61
2023-03-23T08:00:27.421Z,21.6
2023-03-23T08:01:32.768Z,21.59
2023-03-23T08:02:38.092Z,21.6
2023-03-23T08:03:43.517Z,21.58
2023-03-23T08:04:51.025Z,21.58
2023-03-23T08:05:56.376Z,21.59
2023-03-23T08:07:01.734Z,21.58
2023-03-23T08:08:07.110Z,21.58
2023-03-23T08:09:12.570Z,21.58
2023-03-23T08:10:17.950Z,21.58
2023-03-23T08:11:23.335Z,21.56
2023-03-23T08:12:28.708Z,21.55
2023-03-23T08:13:34.041Z,21.55
2023-03-23T08:14:39.465Z,21.56
2023-03-23T08:15:44.913Z,21.56
2023-03-23T08:16:50.292Z,21.58
2023-03-23T08:17:55.592Z,21.58
2023-03-23T08:19:08.612Z,21.57
2023-03-23T08:20:14.321Z,21.58
2023-03-23T08:21:19.718Z,21.57
2023-03-23T08:22:25.104Z,21.56
2023-03-23T08:23:30.534Z,21.58
2023-03-23T08:24:36.016Z,21.59
2023-03-23T08:25:41.467Z,21.6
2023-03-23T08:26:47.293Z,21.59
2023-03-23T08:27:52.676Z,21.6
2023-03-23T08:28:58.313Z,21.59
2023-03-23T08:30:03.644Z,21.61
2023-03-23T08:31:08.975Z,21.58
2023-03-23T08:32:14.324Z,21.59
2023-03-23T08:33:19.673Z,21.57
2023-03-23T08:34:25.051Z,21.56
2023-03-23T08:35:30.387Z,21.55
2023-03-23T08:36:35.794Z,21.55
2023-03-23T08:37:43.832Z,21.55
2023-03-23T08:38:49.191Z,21.56
2023-03-23T08:39:54.913Z,21.55
2023-03-23T08:41:00.436Z,21.56
2023-03-23T08:42:05.776Z,21.58
2023-03-23T08:43:11.105Z,21.58
2023-03-23T08:44:16.440Z,21.57
2023-03-23T08:45:21.793Z,21.56
2023-03-23T08:46:27.215Z,21.56
2023-03-23T08:47:32.563Z,21.57
2023-03-23T08:48:38.273Z,21.58
2023-03-23T08:49:43.602Z,21.59
2023-03-23T08:50:48.931Z,21.57
2023-03-23T08:51:54.273Z,21.59
2023-03-23T08:52:59.647Z,21.61
2023-03-23T08:54:04.986Z,21.58
2023-03-23T08:55:10.320Z,21.58
2023-03-23T08:56:15.688Z,21.59
2023-03-23T08:57:21.022Z,21.58
2023-03-23T08:58:26.401Z,21.59
2023-03-23T08:59:31.729Z,21.6
2023-03-23T09:00:44.041Z,21.59
2023-03-23T09:01:53.976Z,21.59
2023-03-23T09:02:59.366Z,21.6
2023-03-23T09:04:07.775Z,21.6
2023-03-23T09:05:13.102Z,21.62
2023-03-23T09:06:18.456Z,21.6
2023-03-23T09:07:23.884Z,21.62
2023-03-23T09:08:29.219Z,21.64
2023-03-23T09:09:34.557Z,21.63
2023-03-23T09:10:39.895Z,21.63
2023-03-23T09:11:45.235Z,21.62
2023-03-23T09:12:50.621Z,21.62
2023-03-23T09:13:56.369Z,21.63
2023-03-23T09:15:01.782Z,21.61
2023-03-23T09:16:07.136Z,21.6
2023-03-23T09:17:12.511Z,21.6
2023-03-23T09:18:17.861Z,21.59
2023-03-23T09:19:23.212Z,21.6
2023-03-23T09:20:28.579Z,21.58
2023-03-23T09:21:33.920Z,21.59
2023-03-23T09:22:39.260Z,21.59
2023-03-23T09:23:44.605Z,21.57
2023-03-23T09:24:50.976Z,21.57
2023-03-23T09:25:57.110Z,21.58
2023-03-23T09:27:02.425Z,21.58
2023-03-23T09:28:07.760Z,21.59
2023-03-23T09:29:13.090Z,21.61
2023-03-23T09:30:18.480Z,21.61
2023-03-23T09:31:23.839Z,21.61
2023-03-23T09:32:29.252Z,21.62
2023-03-23T09:33:34.597Z,21.63
2023-03-23T09:34:49.751Z,21.62
2023-03-23T09:35:55.161Z,21.64
2023-03-23T09:37:00.632Z,21.62
2023-03-23T09:38:05.991Z,21.62
2023-03-23T09:39:11.344Z,21.62
2023-03-23T09:40:16.717Z,21.62
2023-03-23T09:41:22.048Z,21.6
2023-03-23T09:42:27.389Z,21.61
2023-03-23T09:43:32.744Z,21.6
2023-03-23T09:44:38.136Z,21.59
2023-03-23T09:45:43.610Z,21.59
2023-03-23T09:46:49.088Z,21.6
2023-03-23T09:47:54.438Z,21.59
2023-03-23T09:48:59.825Z,21.59
2023-03-23T09:50:07.416Z,21.59
2023-03-23T09:51:12.761Z,21.58
2023-03-23T09:52:18.119Z,21.58
2023-03-23T09:53:23.482Z,21.56
2023-03-23T09:54:28.907Z,21.56
2023-03-23T09:55:34.238Z,21.58
2023-03-23T09:56:39.585Z,21.58
2023-03-23T09:57:45.098Z,21.57
2023-03-23T09:58:50.467Z,21.55
2023-03-23T09:59:55.934Z,21.56
2023-03-23T10:01:01.348Z,21.57
2023-03-23T10:02:06.790Z,21.58
2023-03-23T10:03:12.272Z,21.57
2023-03-23T10:04:17.648Z,21.57
2023-03-23T10:05:23.161Z,21.57
2023-03-23T10:06:28.538Z,21.56
2023-03-23T10:07:34.195Z,21.57
2023-03-23T10:08:41.072Z,21.55
2023-03-23T10:10:00.274Z,21.55
2023-03-23T10:11:05.678Z,21.56
2023-03-23T10:12:11.036Z,21.53
2023-03-23T10:13:16.459Z,21.54
2023-03-23T10:14:21.870Z,21.54
2023-03-23T10:15:27.261Z,21.54
2023-03-23T10:16:32.654Z,21.53
2023-03-23T10:17:38.019Z,21.52
2023-03-23T10:18:43.496Z,21.53
2023-03-23T10:19:48.870Z,21.53
2023-03-23T10:20:54.274Z,21.52
2023-03-23T10:21:59.641Z,21.55
2023-03-23T10:23:06.071Z,21.53
2023-03-23T10:24:11.430Z,21.53
2023-03-23T10:25:16.803Z,21.53
2023-03-23T10:26:22.227Z,21.52
2023-03-23T10:27:27.596Z,21.54
2023-03-23T10:28:32.981Z,21.56
2023-03-23T10:29:38.367Z,21.55
2023-03-23T10:30:43.720Z,21.56
2023-03-23T10:31:51.658Z,21.57
2023-03-23T10:33:00.209Z,21.56
2023-03-23T10:34:05.687Z,21.56
2023-03-23T10:35:11.069Z,21.56
2023-03-23T10:36:16.439Z,21.56
2023-03-23T10:37:21.960Z,21.56
2023-03-23T10:38:27.334Z,21.57
2023-03-23T10:39:32.756Z,21.57
2023-03-23T10:40:38.189Z,21.59
2023-03-23T10:41:43.578Z,21.57
2023-03-23T10:42:48.922Z,21.58
2023-03-23T10:43:54.344Z,21.56
2023-03-23T10:44:59.691Z,21.53
2023-03-23T10:46:05.173Z,21.51
2023-03-23T10:47:10.967Z,21.53
2023-03-23T10:48:16.367Z,21.52
2023-03-23T10:49:21.736Z,21.54
2023-03-23T10:50:27.142Z,21.54
2023-03-23T10:51:32.805Z,21.57
2023-03-23T10:52:38.156Z,21.56
2023-03-23T10:53:43.550Z,21.53
2023-03-23T10:54:48.899Z,21.53
2023-03-23T10:55:54.313Z,21.54
2023-03-23T10:57:01.196Z,21.56
2023-03-23T10:58:08.093Z,21.57
2023-03-23T10:59:13.679Z,21.58
2023-03-23T11:00:19.062Z,21.57
2023-03-23T11:01:24.955Z,21.57
2023-03-23T11:02:30.316Z,21.58
2023-03-23T11:03:35.733Z,21.57
2023-03-23T11:04:41.152Z,21.57
2023-03-23T11:05:46.523Z,21.59
2023-03-23T11:06:51.920Z,21.6
2023-03-23T11:07:57.535Z,21.57
2023-03-23T11:09:02.936Z,21.56
2023-03-23T11:10:08.291Z,21.57
2023-03-23T11:11:13.737Z,21.57
2023-03-23T11:12:19.463Z,21.58
2023-03-23T11:13:24.873Z,21.56
2023-03-23T11:14:30.257Z,21.56
2023-03-23T11:15:35.643Z,21.55
2023-03-23T11:16:41.022Z,21.55
2023-03-23T11:17:46.447Z,21.53
2023-03-23T11:18:51.904Z,21.55
2023-03-23T11:19:57.245Z,21.55
2023-03-23T11:21:02.612Z,21.55
2023-03-23T11:22:08.028Z,21.55
2023-03-23T11:23:13.393Z,21.53
2023-03-23T11:24:18.764Z,21.54
2023-03-23T11:25:24.174Z,21.55
2023-03-23T11:26:29.587Z,21.54
2023-03-23T11:27:34.994Z,21.53
2023-03-23T11:28:40.412Z,21.53
2023-03-23T11:29:49.588Z,21.51
2023-03-23T11:31:02.563Z,21.52
2023-03-23T11:32:07.998Z,21.51
2023-03-23T11:33:13.405Z,21.49
2023-03-23T11:34:18.803Z,21.51
2023-03-23T11:35:24.181Z,21.52
2023-03-23T11:36:29.736Z,21.51
2023-03-23T11:37:35.278Z,21.47
2023-03-23T11:38:40.630Z,21.43
2023-03-23T11:39:46.026Z,21.43
2023-03-23T11:40:51.442Z,21.43
2023-03-23T11:42:06.981Z,21.41
2023-03-23T11:43:14.411Z,21.4
2023-03-23T11:44:20.193Z,21.46
2023-03-23T11:45:25.587Z,21.47
2023-03-23T11:46:30.984Z,21.49
2023-03-23T11:47:36.364Z,21.5
2023-03-23T11:48:41.731Z,21.5
2023-03-23T11:49:47.151Z,21.54
2023-03-23T11:50:52.525Z,21.55
2023-03-23T11:51:57.902Z,21.57
2023-03-23T11:53:03.270Z,21.57
2023-03-23T11:54:08.657Z,21.59
2023-03-23T11:55:14.091Z,21.59
2023-03-23T11:56:19.602Z,21.6
2023-03-23T11:57:25.032Z,21.58
2023-03-23T11:58:30.419Z,21.6
2023-03-23T11:59:35.778Z,21.6
2023-03-23T12:00:41.178Z,21.6
2023-03-23T12:01:46.602Z,21.61
2023-03-23T12:02:52.017Z,21.61
2023-03-23T12:03:57.392Z,21.62
2023-03-23T12:05:02.797Z,21.62
2023-03-23T12:06:08.173Z,21.61
2023-03-23T12:07:13.704Z,21.62
2023-03-23T12:09:25.659Z,21.59
2023-03-23T12:10:35.488Z,21.6
2023-03-23T12:12:00.148Z,21.61
2023-03-23T12:13:05.542Z,21.58
2023-03-23T12:14:12.065Z,21.59
2023-03-23T12:15:17.433Z,21.6
2023-03-23T12:16:22.809Z,21.6
2023-03-23T12:17:28.256Z,21.61
2023-03-23T12:18:33.606Z,21.61
2023-03-23T12:19:39.014Z,21.61
2023-03-23T12:21:50.794Z,21.61
2023-03-23T12:22:56.158Z,21.6
2023-03-23T12:24:03.134Z,21.58
2023-03-23T12:25:10.438Z,21.59
2023-03-23T12:26:15.895Z,21.6
2023-03-23T12:27:21.268Z,21.6
2023-03-23T12:28:26.655Z,21.59
2023-03-23T12:29:32.009Z,21.6
2023-03-23T12:30:37.364Z,21.57
2023-03-23T12:31:42.720Z,21.57
2023-03-23T12:32:48.053Z,21.57
2023-03-23T12:33:53.392Z,21.57
2023-03-23T12:34:59.080Z,21.58
2023-03-23T12:36:04.567Z,21.55
2023-03-23T12:37:10.021Z,21.56
2023-03-23T12:38:15.357Z,21.55
2023-03-23T12:39:20.760Z,21.56
2023-03-23T12:40:26.108Z,21.55
2023-03-23T12:41:31.476Z,21.55
2023-03-23T12:42:36.800Z,21.55
2023-03-23T12:43:42.154Z,21.55
2023-03-23T12:44:47.486Z,21.56
2023-03-23T12:45:52.898Z,21.54
2023-03-23T12:46:58.271Z,21.53
2023-03-23T12:48:03.612Z,21.53
2023-03-23T12:49:09.010Z,21.53
2023-03-23T12:50:14.335Z,21.54
2023-03-23T12:51:19.736Z,21.52
2023-03-23T12:52:25.104Z,21.52
2023-03-23T12:53:30.441Z,21.54
2023-03-23T12:54:35.795Z,21.54
2023-03-23T12:55:41.441Z,21.53
2023-03-23T12:56:47.291Z,21.54
2023-03-23T12:57:52.643Z,21.55
2023-03-23T12:58:58.027Z,21.55
2023-03-23T13:00:03.348Z,21.55
2023-03-23T13:01:09.016Z,21.55
2023-03-23T13:02:14.382Z,21.55
2023-03-23T13:03:19.702Z,21.55
2023-03-23T13:04:25.050Z,21.55
2023-03-23T13:05:30.428Z,21.53
2023-03-23T13:06:35.779Z,21.53
2023-03-23T13:07:41.124Z,21.56
2023-03-23T13:08:46.495Z,21.57
2023-03-23T13:09:51.873Z,21.55
2023-03-23T13:10:57.236Z,21.57
2023-03-23T13:12:02.613Z,21.58
2023-03-23T13:13:07.960Z,21.57
2023-03-23T13:14:26.411Z,21.57
2023-03-23T13:15:31.771Z,21.57
2023-03-23T13:16:37.368Z,21.58
2023-03-23T13:17:42.796Z,21.59
2023-03-23T13:18:48.164Z,21.58
2023-03-23T13:19:53.522Z,21.59
2023-03-23T13:20:58.865Z,21.59
2023-03-23T13:22:04.279Z,21.57
2023-03-23T13:23:09.613Z,21.58
2023-03-23T13:24:14.998Z,21.58
2023-03-23T13:25:20.325Z,21.59
2023-03-23T13:26:25.687Z,21.57
2023-03-23T13:27:31.091Z,21.57
2023-03-23T13:28:37.494Z,21.58
2023-03-23T13:29:42.915Z,21.6
2023-03-23T13:30:48.308Z,21.6
2023-03-23T13:31:53.664Z,21.59
2023-03-23T13:32:58.996Z,21.58
2023-03-23T13:34:04.607Z,21.59
2023-03-23T13:35:10.005Z,21.57
2023-03-23T13:36:18.917Z,21.57
2023-03-23T13:37:24.448Z,21.57
2023-03-23T13:38:29.828Z,21.58
2023-03-23T13:39:35.261Z,21.58
2023-03-23T13:40:40.762Z,21.58
2023-03-23T13:41:46.986Z,21.58
2023-03-23T13:42:52.314Z,21.58
2023-03-23T13:43:57.649Z,21.58
2023-03-23T13:45:03.016Z,21.57
2023-03-23T13:46:08.381Z,21.57
2023-03-23T13:47:13.707Z,21.57
2023-03-23T13:48:19.052Z,21.57
2023-03-23T13:49:24.387Z,21.55
2023-03-23T13:50:29.747Z,21.55
2023-03-23T13:51:35.107Z,21.55
2023-03-23T13:52:40.473Z,21.55
2023-03-23T13:53:45.823Z,21.55
2023-03-23T13:54:51.166Z,21.53
2023-03-23T13:55:57.131Z,21.54
2023-03-23T13:57:14.684Z,21.51
2023-03-23T13:58:20.123Z,21.52
2023-03-23T13:59:25.577Z,21.52
2023-03-23T14:00:30.908Z,21.51
2023-03-23T14:01:36.463Z,21.55
2023-03-23T14:02:41.808Z,21.56
2023-03-23T14:03:47.216Z,21.55
2023-03-23T14:04:52.590Z,21.54
2023-03-23T14:05:58.006Z,21.52
2023-03-23T14:07:03.333Z,21.51
2023-03-23T14:08:08.751Z,21.47
2023-03-23T14:09:15.130Z,21.48
2023-03-23T14:10:20.479Z,21.47
2023-03-23T14:11:25.858Z,21.48
2023-03-23T14:12:31.215Z,21.48
2023-03-23T14:13:36.776Z,21.48
2023-03-23T14:14:42.184Z,21.47